Clovis/Cannon AFB, New Mexico
Current Conditions -  °F | °C
As of 4:58 PM on Saturday 22 Nov 2014 (Local Time) from KCVS Reporting Station
Clear Clear  
Wind Chill: 68°   Ceiling: Unl
Heat Index: 68°   Visibility: 10mi
Dew Point: 16°   Wind: 20mph
Humidity: 13%   Direction: 270°W
Pressure: 29.79"   Gusts: 29mph
Location:  34.38°N, 103.32°W
Report Text: KCVS 222358Z AUTO 27017G25KT 10SM CLR 20/M09 A2979 RMK AO2 PK WND 28029/41 SLP049
Loading
Personal Weather Stations






























Interactive Weather Map New forecast layout! Learn more

10-Day Weather Forecast

Advertisements
Track Severe Weather on mobile